sensor_id;sensor_type;location;lat;lon;timestamp;P1;durP1;ratioP1;P2;durP2;ratioP2
15240;SDS011;7723;52.170;9.978;2022-11-11T00:00:59;3.63;;;1.90;;
15240;SDS011;7723;52.170;9.978;2022-11-11T00:03:27;4.35;;;1.45;;
15240;SDS011;7723;52.170;9.978;2022-11-11T00:05:59;3.80;;;1.40;;
15240;SDS011;7723;52.170;9.978;2022-11-11T00:08:28;4.07;;;1.55;;
15240;SDS011;7723;52.170;9.978;2022-11-11T00:10:59;3.13;;;1.52;;
15240;SDS011;7723;52.170;9.978;2022-11-11T00:13:28;4.85;;;1.52;;
15240;SDS011;7723;52.170;9.978;2022-11-11T00:15:58;4.05;;;1.40;;
15240;SDS011;7723;52.170;9.978;2022-11-11T00:18:29;6.10;;;1.23;;
15240;SDS011;7723;52.170;9.978;2022-11-11T00:21:14;5.75;;;1.40;;
15240;SDS011;7723;52.170;9.978;2022-11-11T00:24:17;7.53;;;1.65;;
15240;SDS011;7723;52.170;9.978;2022-11-11T00:27:04;7.15;;;1.63;;
15240;SDS011;7723;52.170;9.978;2022-11-11T00:29:31;4.72;;;1.30;;
15240;SDS011;7723;52.170;9.978;2022-11-11T00:31:59;4.63;;;1.60;;
15240;SDS011;7723;52.170;9.978;2022-11-11T00:34:55;3.05;;;1.40;;
15240;SDS011;7723;52.170;9.978;2022-11-11T00:37:41;6.38;;;1.58;;
15240;SDS011;7723;52.170;9.978;2022-11-11T00:40:11;4.13;;;1.60;;
15240;SDS011;7723;52.170;9.978;2022-11-11T00:42:39;5.13;;;1.30;;
15240;SDS011;7723;52.170;9.978;2022-11-11T00:45:06;2.33;;;1.30;;
15240;SDS011;7723;52.170;9.978;2022-11-11T00:47:35;4.43;;;1.35;;
15240;SDS011;7723;52.170;9.978;2022-11-11T00:50:19;2.90;;;1.67;;
15240;SDS011;7723;52.170;9.978;2022-11-11T00:53:07;9.13;;;1.83;;
15240;SDS011;7723;52.170;9.978;2022-11-11T00:55:39;4.05;;;2.00;;
15240;SDS011;7723;52.170;9.978;2022-11-11T00:58:06;3.25;;;1.80;;
15240;SDS011;7723;52.170;9.978;2022-11-11T01:00:34;3.20;;;1.67;;
15240;SDS011;7723;52.170;9.978;2022-11-11T01:03:01;3.42;;;1.40;;
15240;SDS011;7723;52.170;9.978;2022-11-11T01:05:28;5.82;;;1.80;;
15240;SDS011;7723;52.170;9.978;2022-11-11T01:07:56;3.35;;;2.10;;
15240;SDS011;7723;52.170;9.978;2022-11-11T01:10:23;3.42;;;1.63;;
15240;SDS011;7723;52.170;9.978;2022-11-11T01:13:15;2.90;;;1.50;;
15240;SDS011;7723;52.170;9.978;2022-11-11T01:15:44;3.13;;;1.33;;
15240;SDS011;7723;52.170;9.978;2022-11-11T01:18:14;5.50;;;1.60;;
15240;SDS011;7723;52.170;9.978;2022-11-11T01:20:42;4.18;;;1.80;;
15240;SDS011;7723;52.170;9.978;2022-11-11T01:23:10;2.90;;;1.40;;
15240;SDS011;7723;52.170;9.978;2022-11-11T01:25:39;4.25;;;1.38;;
15240;SDS011;7723;52.170;9.978;2022-11-11T01:28:07;3.25;;;1.50;;
15240;SDS011;7723;52.170;9.978;2022-11-11T01:30:37;5.85;;;1.60;;
15240;SDS011;7723;52.170;9.978;2022-11-11T01:33:04;2.70;;;1.50;;
15240;SDS011;7723;52.170;9.978;2022-11-11T01:35:31;3.28;;;1.30;;
15240;SDS011;7723;52.170;9.978;2022-11-11T01:38:03;3.83;;;1.38;;
15240;SDS011;7723;52.170;9.978;2022-11-11T01:40:30;3.40;;;1.60;;
15240;SDS011;7723;52.170;9.978;2022-11-11T01:43:16;2.75;;;1.70;;
15240;SDS011;7723;52.170;9.978;2022-11-11T01:45:48;4.00;;;1.52;;
15240;SDS011;7723;52.170;9.978;2022-11-11T01:48:19;3.20;;;1.35;;
15240;SDS011;7723;52.170;9.978;2022-11-11T01:51:10;4.55;;;1.50;;
15240;SDS011;7723;52.170;9.978;2022-11-11T01:53:43;3.10;;;1.63;;
15240;SDS011;7723;52.170;9.978;2022-11-11T01:56:14;3.47;;;1.77;;
15240;SDS011;7723;52.170;9.978;2022-11-11T01:58:42;2.65;;;1.50;;
15240;SDS011;7723;52.170;9.978;2022-11-11T02:01:11;4.45;;;1.70;;
15240;SDS011;7723;52.170;9.978;2022-11-11T02:03:40;4.85;;;1.73;;
15240;SDS011;7723;52.170;9.978;2022-11-11T02:06:28;3.72;;;1.83;;
15240;SDS011;7723;52.170;9.978;2022-11-11T02:08:56;3.17;;;1.67;;
15240;SDS011;7723;52.170;9.978;2022-11-11T02:11:24;3.20;;;1.55;;
15240;SDS011;7723;52.170;9.978;2022-11-11T02:14:10;2.53;;;1.50;;
15240;SDS011;7723;52.170;9.978;2022-11-11T02:16:56;6.15;;;2.05;;
15240;SDS011;7723;52.170;9.978;2022-11-11T02:19:25;4.60;;;1.92;;
15240;SDS011;7723;52.170;9.978;2022-11-11T02:22:02;2.05;;;1.25;;
15240;SDS011;7723;52.170;9.978;2022-11-11T02:24:35;3.67;;;1.63;;
15240;SDS011;7723;52.170;9.978;2022-11-11T02:27:04;5.00;;;2.13;;
15240;SDS011;7723;52.170;9.978;2022-11-11T02:29:36;4.05;;;1.40;;
15240;SDS011;7723;52.170;9.978;2022-11-11T02:32:04;2.92;;;1.55;;
15240;SDS011;7723;52.170;9.978;2022-11-11T02:34:31;2.17;;;1.48;;
15240;SDS011;7723;52.170;9.978;2022-11-11T02:37:00;1.95;;;1.10;;
15240;SDS011;7723;52.170;9.978;2022-11-11T02:39:30;3.83;;;1.25;;
15240;SDS011;7723;52.170;9.978;2022-11-11T02:42:04;4.88;;;1.45;;
15240;SDS011;7723;52.170;9.978;2022-11-11T02:44:34;3.17;;;1.67;;
15240;SDS011;7723;52.170;9.978;2022-11-11T02:47:02;5.65;;;1.48;;
15240;SDS011;7723;52.170;9.978;2022-11-11T02:49:29;6.60;;;1.50;;
15240;SDS011;7723;52.170;9.978;2022-11-11T02:51:56;4.20;;;1.35;;
15240;SDS011;7723;52.170;9.978;2022-11-11T02:54:24;1.60;;;1.15;;
15240;SDS011;7723;52.170;9.978;2022-11-11T02:56:52;4.60;;;1.67;;
15240;SDS011;7723;52.170;9.978;2022-11-11T02:59:35;5.78;;;1.55;;
15240;SDS011;7723;52.170;9.978;2022-11-11T03:02:03;4.82;;;2.33;;
15240;SDS011;7723;52.170;9.978;2022-11-11T03:04:32;3.53;;;1.58;;
15240;SDS011;7723;52.170;9.978;2022-11-11T03:06:59;2.33;;;1.50;;
15240;SDS011;7723;52.170;9.978;2022-11-11T03:09:26;7.50;;;1.60;;
15240;SDS011;7723;52.170;9.978;2022-11-11T03:11:55;2.08;;;1.38;;
15240;SDS011;7723;52.170;9.978;2022-11-11T03:14:23;6.15;;;1.60;;
15240;SDS011;7723;52.170;9.978;2022-11-11T03:16:50;4.65;;;1.83;;
15240;SDS011;7723;52.170;9.978;2022-11-11T03:19:35;5.85;;;1.50;;
15240;SDS011;7723;52.170;9.978;2022-11-11T03:22:02;7.55;;;1.70;;
15240;SDS011;7723;52.170;9.978;2022-11-11T03:24:28;2.22;;;1.58;;
15240;SDS011;7723;52.170;9.978;2022-11-11T03:27:11;3.33;;;1.55;;
15240;SDS011;7723;52.170;9.978;2022-11-11T03:29:39;4.15;;;1.48;;
15240;SDS011;7723;52.170;9.978;2022-11-11T03:32:07;3.63;;;1.70;;
15240;SDS011;7723;52.170;9.978;2022-11-11T03:34:35;4.15;;;1.80;;
15240;SDS011;7723;52.170;9.978;2022-11-11T03:37:03;4.47;;;1.45;;
15240;SDS011;7723;52.170;9.978;2022-11-11T03:39:48;3.72;;;1.70;;
15240;SDS011;7723;52.170;9.978;2022-11-11T03:42:16;2.53;;;1.65;;
15240;SDS011;7723;52.170;9.978;2022-11-11T03:44:44;2.35;;;1.50;;
15240;SDS011;7723;52.170;9.978;2022-11-11T03:47:11;2.53;;;1.50;;
15240;SDS011;7723;52.170;9.978;2022-11-11T03:49:40;4.07;;;1.27;;
15240;SDS011;7723;52.170;9.978;2022-11-11T03:52:10;3.88;;;1.60;;
15240;SDS011;7723;52.170;9.978;2022-11-11T03:54:37;3.42;;;1.48;;
15240;SDS011;7723;52.170;9.978;2022-11-11T03:57:05;2.65;;;1.55;;
15240;SDS011;7723;52.170;9.978;2022-11-11T03:59:51;4.07;;;1.67;;
15240;SDS011;7723;52.170;9.978;2022-11-11T04:02:18;4.20;;;1.48;;
15240;SDS011;7723;52.170;9.978;2022-11-11T04:05:03;3.83;;;1.70;;
15240;SDS011;7723;52.170;9.978;2022-11-11T04:07:49;3.65;;;1.92;;
15240;SDS011;7723;52.170;9.978;2022-11-11T04:10:33;5.38;;;1.90;;
15240;SDS011;7723;52.170;9.978;2022-11-11T04:13:01;3.50;;;1.58;;
15240;SDS011;7723;52.170;9.978;2022-11-11T04:15:48;4.18;;;2.00;;
15240;SDS011;7723;52.170;9.978;2022-11-11T04:18:34;4.20;;;1.92;;
15240;SDS011;7723;52.170;9.978;2022-11-11T04:21:19;7.50;;;1.67;;
15240;SDS011;7723;52.170;9.978;2022-11-11T04:24:04;8.95;;;2.03;;
15240;SDS011;7723;52.170;9.978;2022-11-11T04:26:45;4.47;;;2.03;;
15240;SDS011;7723;52.170;9.978;2022-11-11T04:29:13;4.43;;;2.08;;
15240;SDS011;7723;52.170;9.978;2022-11-11T04:31:56;3.75;;;2.53;;
15240;SDS011;7723;52.170;9.978;2022-11-11T04:34:41;3.85;;;2.00;;
15240;SDS011;7723;52.170;9.978;2022-11-11T04:37:10;4.80;;;2.35;;
15240;SDS011;7723;52.170;9.978;2022-11-11T04:39:37;5.07;;;1.77;;
15240;SDS011;7723;52.170;9.978;2022-11-11T04:42:22;3.47;;;1.60;;
15240;SDS011;7723;52.170;9.978;2022-11-11T04:44:49;3.10;;;1.63;;
15240;SDS011;7723;52.170;9.978;2022-11-11T04:47:35;5.20;;;1.75;;
15240;SDS011;7723;52.170;9.978;2022-11-11T04:50:03;2.45;;;1.27;;
15240;SDS011;7723;52.170;9.978;2022-11-11T04:52:31;3.55;;;1.55;;
15240;SDS011;7723;52.170;9.978;2022-11-11T04:54:58;3.17;;;1.45;;
15240;SDS011;7723;52.170;9.978;2022-11-11T04:57:43;5.40;;;1.60;;
15240;SDS011;7723;52.170;9.978;2022-11-11T05:00:13;3.42;;;1.60;;
15240;SDS011;7723;52.170;9.978;2022-11-11T05:02:44;4.07;;;1.92;;
15240;SDS011;7723;52.170;9.978;2022-11-11T05:05:28;3.05;;;1.80;;
15240;SDS011;7723;52.170;9.978;2022-11-11T05:08:18;3.55;;;1.80;;
15240;SDS011;7723;52.170;9.978;2022-11-11T05:11:02;3.75;;;1.58;;
15240;SDS011;7723;52.170;9.978;2022-11-11T05:13:30;3.88;;;1.60;;
15240;SDS011;7723;52.170;9.978;2022-11-11T05:16:15;5.93;;;2.20;;
15240;SDS011;7723;52.170;9.978;2022-11-11T05:19:04;4.93;;;1.40;;
15240;SDS011;7723;52.170;9.978;2022-11-11T05:21:49;1.98;;;1.77;;
15240;SDS011;7723;52.170;9.978;2022-11-11T05:24:18;3.78;;;1.33;;
15240;SDS011;7723;52.170;9.978;2022-11-11T05:27:03;3.45;;;1.88;;
15240;SDS011;7723;52.170;9.978;2022-11-11T05:29:30;5.22;;;1.50;;
15240;SDS011;7723;52.170;9.978;2022-11-11T05:31:57;3.47;;;1.63;;
15240;SDS011;7723;52.170;9.978;2022-11-11T05:34:26;4.85;;;1.98;;
15240;SDS011;7723;52.170;9.978;2022-11-11T05:36:53;2.17;;;1.30;;
15240;SDS011;7723;52.170;9.978;2022-11-11T05:39:20;3.97;;;1.67;;
15240;SDS011;7723;52.170;9.978;2022-11-11T05:41:48;4.18;;;1.70;;
15240;SDS011;7723;52.170;9.978;2022-11-11T05:44:15;3.38;;;1.75;;
15240;SDS011;7723;52.170;9.978;2022-11-11T05:46:42;3.05;;;1.70;;
15240;SDS011;7723;52.170;9.978;2022-11-11T05:49:10;2.47;;;1.50;;
15240;SDS011;7723;52.170;9.978;2022-11-11T05:51:44;5.07;;;1.70;;
15240;SDS011;7723;52.170;9.978;2022-11-11T05:54:12;2.65;;;1.65;;
15240;SDS011;7723;52.170;9.978;2022-11-11T05:56:40;2.42;;;1.50;;
15240;SDS011;7723;52.170;9.978;2022-11-11T05:59:07;2.05;;;1.33;;
15240;SDS011;7723;52.170;9.978;2022-11-11T06:01:35;1.98;;;1.40;;
15240;SDS011;7723;52.170;9.978;2022-11-11T06:04:03;4.00;;;1.60;;
15240;SDS011;7723;52.170;9.978;2022-11-11T06:06:31;4.18;;;1.70;;
15240;SDS011;7723;52.170;9.978;2022-11-11T06:09:00;2.95;;;1.77;;
15240;SDS011;7723;52.170;9.978;2022-11-11T06:11:28;2.55;;;1.42;;
15240;SDS011;7723;52.170;9.978;2022-11-11T06:13:56;6.32;;;1.88;;
15240;SDS011;7723;52.170;9.978;2022-11-11T06:16:24;3.25;;;1.55;;
15240;SDS011;7723;52.170;9.978;2022-11-11T06:18:51;2.83;;;1.70;;
15240;SDS011;7723;52.170;9.978;2022-11-11T06:21:19;3.80;;;1.70;;
15240;SDS011;7723;52.170;9.978;2022-11-11T06:23:46;3.17;;;1.80;;
15240;SDS011;7723;52.170;9.978;2022-11-11T06:26:15;3.03;;;1.50;;
15240;SDS011;7723;52.170;9.978;2022-11-11T06:28:42;4.15;;;1.73;;
15240;SDS011;7723;52.170;9.978;2022-11-11T06:31:12;2.70;;;1.33;;
15240;SDS011;7723;52.170;9.978;2022-11-11T06:33:40;5.97;;;1.80;;
15240;SDS011;7723;52.170;9.978;2022-11-11T06:36:08;2.70;;;1.58;;
15240;SDS011;7723;52.170;9.978;2022-11-11T06:38:37;6.13;;;1.50;;
15240;SDS011;7723;52.170;9.978;2022-11-11T06:41:04;3.10;;;1.50;;
15240;SDS011;7723;52.170;9.978;2022-11-11T06:43:33;4.03;;;1.70;;
15240;SDS011;7723;52.170;9.978;2022-11-11T06:46:00;4.88;;;1.80;;
15240;SDS011;7723;52.170;9.978;2022-11-11T06:48:28;3.58;;;1.65;;
15240;SDS011;7723;52.170;9.978;2022-11-11T06:50:59;2.53;;;1.40;;
15240;SDS011;7723;52.170;9.978;2022-11-11T06:53:27;5.15;;;1.38;;
15240;SDS011;7723;52.170;9.978;2022-11-11T06:55:55;2.22;;;1.33;;
15240;SDS011;7723;52.170;9.978;2022-11-11T06:58:23;2.72;;;1.65;;
15240;SDS011;7723;52.170;9.978;2022-11-11T07:00:52;2.95;;;1.65;;
15240;SDS011;7723;52.170;9.978;2022-11-11T07:03:19;3.90;;;1.77;;
15240;SDS011;7723;52.170;9.978;2022-11-11T07:05:47;2.05;;;1.75;;
15240;SDS011;7723;52.170;9.978;2022-11-11T07:08:16;3.88;;;1.88;;
15240;SDS011;7723;52.170;9.978;2022-11-11T07:10:44;5.68;;;1.85;;
15240;SDS011;7723;52.170;9.978;2022-11-11T07:13:13;4.68;;;2.15;;
15240;SDS011;7723;52.170;9.978;2022-11-11T07:15:41;2.58;;;1.63;;
15240;SDS011;7723;52.170;9.978;2022-11-11T07:18:10;3.22;;;1.88;;
15240;SDS011;7723;52.170;9.978;2022-11-11T07:20:37;6.53;;;2.17;;
15240;SDS011;7723;52.170;9.978;2022-11-11T07:23:05;6.05;;;1.80;;
15240;SDS011;7723;52.170;9.978;2022-11-11T07:25:33;3.33;;;1.92;;
15240;SDS011;7723;52.170;9.978;2022-11-11T07:28:00;4.40;;;2.00;;
15240;SDS011;7723;52.170;9.978;2022-11-11T07:30:27;7.15;;;1.92;;
15240;SDS011;7723;52.170;9.978;2022-11-11T07:32:55;3.63;;;1.42;;
15240;SDS011;7723;52.170;9.978;2022-11-11T07:35:24;2.15;;;1.48;;
15240;SDS011;7723;52.170;9.978;2022-11-11T07:37:51;4.35;;;2.80;;
15240;SDS011;7723;52.170;9.978;2022-11-11T07:40:18;6.97;;;2.28;;
15240;SDS011;7723;52.170;9.978;2022-11-11T07:42:45;3.10;;;1.70;;
15240;SDS011;7723;52.170;9.978;2022-11-11T07:45:13;4.05;;;2.20;;
15240;SDS011;7723;52.170;9.978;2022-11-11T07:47:44;2.28;;;1.58;;
15240;SDS011;7723;52.170;9.978;2022-11-11T07:50:11;5.00;;;1.70;;
15240;SDS011;7723;52.170;9.978;2022-11-11T07:52:40;2.88;;;1.52;;
15240;SDS011;7723;52.170;9.978;2022-11-11T07:55:13;2.00;;;1.48;;
15240;SDS011;7723;52.170;9.978;2022-11-11T07:57:40;3.20;;;1.90;;
15240;SDS011;7723;52.170;9.978;2022-11-11T08:00:08;3.60;;;1.88;;
15240;SDS011;7723;52.170;9.978;2022-11-11T08:02:36;2.65;;;1.50;;
15240;SDS011;7723;52.170;9.978;2022-11-11T08:05:04;2.08;;;1.30;;
15240;SDS011;7723;52.170;9.978;2022-11-11T08:07:32;3.70;;;2.00;;
15240;SDS011;7723;52.170;9.978;2022-11-11T08:10:02;5.80;;;1.90;;
15240;SDS011;7723;52.170;9.978;2022-11-11T08:12:30;4.57;;;1.90;;
15240;SDS011;7723;52.170;9.978;2022-11-11T08:15:14;2.45;;;1.35;;
15240;SDS011;7723;52.170;9.978;2022-11-11T08:17:41;4.25;;;1.63;;
15240;SDS011;7723;52.170;9.978;2022-11-11T08:20:09;3.75;;;1.95;;
15240;SDS011;7723;52.170;9.978;2022-11-11T08:22:37;4.70;;;1.67;;
15240;SDS011;7723;52.170;9.978;2022-11-11T08:25:07;4.25;;;1.50;;
15240;SDS011;7723;52.170;9.978;2022-11-11T08:27:36;2.97;;;1.40;;
15240;SDS011;7723;52.170;9.978;2022-11-11T08:30:04;2.13;;;1.40;;
15240;SDS011;7723;52.170;9.978;2022-11-11T08:32:33;3.08;;;1.85;;
15240;SDS011;7723;52.170;9.978;2022-11-11T08:35:00;1.52;;;1.20;;
15240;SDS011;7723;52.170;9.978;2022-11-11T08:37:28;2.65;;;1.55;;
15240;SDS011;7723;52.170;9.978;2022-11-11T08:39:55;3.78;;;1.63;;
15240;SDS011;7723;52.170;9.978;2022-11-11T08:42:24;2.78;;;1.20;;
15240;SDS011;7723;52.170;9.978;2022-11-11T08:44:52;3.33;;;1.45;;
15240;SDS011;7723;52.170;9.978;2022-11-11T08:47:19;5.65;;;1.45;;
15240;SDS011;7723;52.170;9.978;2022-11-11T08:49:48;3.30;;;1.15;;
15240;SDS011;7723;52.170;9.978;2022-11-11T08:52:16;2.20;;;1.20;;
15240;SDS011;7723;52.170;9.978;2022-11-11T08:54:43;2.60;;;1.40;;
15240;SDS011;7723;52.170;9.978;2022-11-11T08:57:11;1.80;;;1.30;;
15240;SDS011;7723;52.170;9.978;2022-11-11T08:59:40;2.22;;;1.30;;
15240;SDS011;7723;52.170;9.978;2022-11-11T09:02:08;1.85;;;1.45;;
15240;SDS011;7723;52.170;9.978;2022-11-11T09:04:37;3.85;;;1.42;;
15240;SDS011;7723;52.170;9.978;2022-11-11T09:07:05;1.38;;;1.20;;
15240;SDS011;7723;52.170;9.978;2022-11-11T09:09:33;1.88;;;1.00;;
15240;SDS011;7723;52.170;9.978;2022-11-11T09:12:01;1.48;;;1.10;;
15240;SDS011;7723;52.170;9.978;2022-11-11T09:14:28;1.40;;;1.25;;
15240;SDS011;7723;52.170;9.978;2022-11-11T09:16:56;2.85;;;1.17;;
15240;SDS011;7723;52.170;9.978;2022-11-11T09:19:24;3.03;;;0.90;;
15240;SDS011;7723;52.170;9.978;2022-11-11T09:21:51;2.83;;;1.20;;
15240;SDS011;7723;52.170;9.978;2022-11-11T09:24:19;3.25;;;1.27;;
15240;SDS011;7723;52.170;9.978;2022-11-11T09:26:46;1.55;;;0.88;;
15240;SDS011;7723;52.170;9.978;2022-11-11T09:29:14;1.15;;;0.88;;
15240;SDS011;7723;52.170;9.978;2022-11-11T09:31:42;1.02;;;0.90;;
15240;SDS011;7723;52.170;9.978;2022-11-11T09:34:11;1.70;;;1.20;;
15240;SDS011;7723;52.170;9.978;2022-11-11T09:36:39;1.52;;;1.13;;
15240;SDS011;7723;52.170;9.978;2022-11-11T09:39:07;2.13;;;1.10;;
15240;SDS011;7723;52.170;9.978;2022-11-11T09:41:36;1.92;;;0.90;;
15240;SDS011;7723;52.170;9.978;2022-11-11T09:44:18;2.00;;;1.05;;
15240;SDS011;7723;52.170;9.978;2022-11-11T09:47:00;3.05;;;1.00;;
15240;SDS011;7723;52.170;9.978;2022-11-11T09:49:36;1.15;;;1.00;;
15240;SDS011;7723;52.170;9.978;2022-11-11T09:52:13;2.88;;;1.20;;
15240;SDS011;7723;52.170;9.978;2022-11-11T09:54:48;1.33;;;1.23;;
15240;SDS011;7723;52.170;9.978;2022-11-11T09:57:28;2.80;;;1.38;;
15240;SDS011;7723;52.170;9.978;2022-11-11T10:00:02;1.20;;;0.80;;
15240;SDS011;7723;52.170;9.978;2022-11-11T10:02:34;2.97;;;1.10;;
15240;SDS011;7723;52.170;9.978;2022-11-11T10:05:08;2.75;;;0.98;;
15240;SDS011;7723;52.170;9.978;2022-11-11T10:07:41;1.98;;;0.85;;
15240;SDS011;7723;52.170;9.978;2022-11-11T10:10:16;3.63;;;0.82;;
15240;SDS011;7723;52.170;9.978;2022-11-11T10:12:48;1.83;;;1.10;;
15240;SDS011;7723;52.170;9.978;2022-11-11T10:15:19;1.25;;;0.77;;
15240;SDS011;7723;52.170;9.978;2022-11-11T10:17:50;0.95;;;0.73;;
15240;SDS011;7723;52.170;9.978;2022-11-11T10:20:29;2.00;;;0.93;;
15240;SDS011;7723;52.170;9.978;2022-11-11T10:23:00;2.13;;;0.98;;
15240;SDS011;7723;52.170;9.978;2022-11-11T10:25:31;1.27;;;0.82;;
15240;SDS011;7723;52.170;9.978;2022-11-11T10:28:00;1.05;;;0.70;;
15240;SDS011;7723;52.170;9.978;2022-11-11T10:30:29;3.30;;;0.82;;
15240;SDS011;7723;52.170;9.978;2022-11-11T10:32:58;0.90;;;0.70;;
15240;SDS011;7723;52.170;9.978;2022-11-11T10:35:29;4.50;;;1.65;;
15240;SDS011;7723;52.170;9.978;2022-11-11T10:38:01;1.88;;;0.68;;
15240;SDS011;7723;52.170;9.978;2022-11-11T10:40:40;3.70;;;1.00;;
15240;SDS011;7723;52.170;9.978;2022-11-11T10:43:16;2.08;;;0.68;;
15240;SDS011;7723;52.170;9.978;2022-11-11T10:45:50;3.08;;;0.70;;
15240;SDS011;7723;52.170;9.978;2022-11-11T10:48:23;1.55;;;0.75;;
15240;SDS011;7723;52.170;9.978;2022-11-11T10:50:57;2.42;;;0.80;;
15240;SDS011;7723;52.170;9.978;2022-11-11T10:53:29;1.33;;;0.88;;
15240;SDS011;7723;52.170;9.978;2022-11-11T10:56:05;2.72;;;1.00;;
15240;SDS011;7723;52.170;9.978;2022-11-11T10:58:41;1.45;;;0.95;;
15240;SDS011;7723;52.170;9.978;2022-11-11T11:01:16;1.02;;;0.82;;
15240;SDS011;7723;52.170;9.978;2022-11-11T11:03:48;2.40;;;0.88;;
15240;SDS011;7723;52.170;9.978;2022-11-11T11:06:23;2.67;;;1.00;;
15240;SDS011;7723;52.170;9.978;2022-11-11T11:08:54;2.10;;;0.80;;
15240;SDS011;7723;52.170;9.978;2022-11-11T11:11:29;5.28;;;1.08;;
15240;SDS011;7723;52.170;9.978;2022-11-11T11:13:59;0.90;;;0.80;;
15240;SDS011;7723;52.170;9.978;2022-11-11T11:16:31;2.17;;;0.80;;
15240;SDS011;7723;52.170;9.978;2022-11-11T11:19:16;1.58;;;0.90;;
15240;SDS011;7723;52.170;9.978;2022-11-11T11:21:48;1.85;;;1.10;;
15240;SDS011;7723;52.170;9.978;2022-11-11T11:24:18;2.53;;;0.70;;
15240;SDS011;7723;52.170;9.978;2022-11-11T11:26:47;1.35;;;0.73;;
15240;SDS011;7723;52.170;9.978;2022-11-11T11:29:24;0.98;;;0.80;;
15240;SDS011;7723;52.170;9.978;2022-11-11T11:32:09;1.35;;;0.63;;
15240;SDS011;7723;52.170;9.978;2022-11-11T11:34:42;2.15;;;0.80;;
15240;SDS011;7723;52.170;9.978;2022-11-11T11:37:12;2.45;;;0.70;;
15240;SDS011;7723;52.170;9.978;2022-11-11T11:39:41;1.95;;;0.57;;
15240;SDS011;7723;52.170;9.978;2022-11-11T11:42:08;1.30;;;0.75;;
15240;SDS011;7723;52.170;9.978;2022-11-11T11:44:54;2.15;;;0.60;;
15240;SDS011;7723;52.170;9.978;2022-11-11T11:47:24;1.75;;;0.60;;
15240;SDS011;7723;52.170;9.978;2022-11-11T11:50:08;0.80;;;0.60;;
15240;SDS011;7723;52.170;9.978;2022-11-11T11:52:51;1.45;;;0.63;;
15240;SDS011;7723;52.170;9.978;2022-11-11T11:55:26;0.90;;;0.50;;
15240;SDS011;7723;52.170;9.978;2022-11-11T11:58:02;0.55;;;0.32;;
15240;SDS011;7723;52.170;9.978;2022-11-11T12:00:44;0.52;;;0.40;;
15240;SDS011;7723;52.170;9.978;2022-11-11T12:03:25;2.00;;;0.50;;
15240;SDS011;7723;52.170;9.978;2022-11-11T12:06:16;1.27;;;0.85;;
15240;SDS011;7723;52.170;9.978;2022-11-11T12:08:55;1.30;;;0.70;;
15240;SDS011;7723;52.170;9.978;2022-11-11T12:11:31;0.98;;;0.63;;
15240;SDS011;7723;52.170;9.978;2022-11-11T12:14:06;1.20;;;0.68;;
15240;SDS011;7723;52.170;9.978;2022-11-11T12:16:52;0.95;;;0.70;;
15240;SDS011;7723;52.170;9.978;2022-11-11T12:19:28;0.80;;;0.52;;
15240;SDS011;7723;52.170;9.978;2022-11-11T12:22:05;1.42;;;1.02;;
15240;SDS011;7723;52.170;9.978;2022-11-11T12:24:46;2.65;;;1.10;;
15240;SDS011;7723;52.170;9.978;2022-11-11T12:27:22;1.33;;;1.08;;
15240;SDS011;7723;52.170;9.978;2022-11-11T12:30:01;1.13;;;0.82;;
15240;SDS011;7723;52.170;9.978;2022-11-11T12:32:35;1.70;;;0.93;;
15240;SDS011;7723;52.170;9.978;2022-11-11T12:35:15;1.05;;;0.80;;
15240;SDS011;7723;52.170;9.978;2022-11-11T12:38:01;1.23;;;0.70;;
15240;SDS011;7723;52.170;9.978;2022-11-11T12:40:44;1.00;;;0.80;;
15240;SDS011;7723;52.170;9.978;2022-11-11T12:43:20;1.60;;;0.80;;
15240;SDS011;7723;52.170;9.978;2022-11-11T12:45:56;0.80;;;0.80;;
15240;SDS011;7723;52.170;9.978;2022-11-11T12:48:33;2.25;;;0.75;;
15240;SDS011;7723;52.170;9.978;2022-11-11T12:51:13;1.20;;;0.80;;
15240;SDS011;7723;52.170;9.978;2022-11-11T12:53:50;0.63;;;0.45;;
15240;SDS011;7723;52.170;9.978;2022-11-11T12:56:30;1.25;;;0.90;;
15240;SDS011;7723;52.170;9.978;2022-11-11T12:59:03;2.38;;;1.02;;
15240;SDS011;7723;52.170;9.978;2022-11-11T13:01:40;2.53;;;0.82;;
15240;SDS011;7723;52.170;9.978;2022-11-11T13:04:28;0.93;;;0.60;;
15240;SDS011;7723;52.170;9.978;2022-11-11T13:07:14;1.63;;;0.70;;
15240;SDS011;7723;52.170;9.978;2022-11-11T13:10:16;0.90;;;0.50;;
15240;SDS011;7723;52.170;9.978;2022-11-11T13:12:56;1.73;;;0.88;;
15240;SDS011;7723;52.170;9.978;2022-11-11T13:15:32;5.55;;;0.63;;
15240;SDS011;7723;52.170;9.978;2022-11-11T13:17:59;1.13;;;0.60;;
15240;SDS011;7723;52.170;9.978;2022-11-11T13:20:42;0.95;;;0.75;;
15240;SDS011;7723;52.170;9.978;2022-11-11T13:23:14;1.45;;;0.65;;
15240;SDS011;7723;52.170;9.978;2022-11-11T13:25:43;1.40;;;0.70;;
15240;SDS011;7723;52.170;9.978;2022-11-11T13:28:16;0.85;;;0.73;;
15240;SDS011;7723;52.170;9.978;2022-11-11T13:30:52;0.88;;;0.50;;
15240;SDS011;7723;52.170;9.978;2022-11-11T13:33:34;0.57;;;0.57;;
15240;SDS011;7723;52.170;9.978;2022-11-11T13:36:06;0.98;;;0.70;;
15240;SDS011;7723;52.170;9.978;2022-11-11T13:38:36;1.27;;;0.80;;
15240;SDS011;7723;52.170;9.978;2022-11-11T13:41:09;1.98;;;0.70;;
15240;SDS011;7723;52.170;9.978;2022-11-11T13:43:41;1.10;;;0.70;;
15240;SDS011;7723;52.170;9.978;2022-11-11T13:46:21;4.55;;;0.70;;
15240;SDS011;7723;52.170;9.978;2022-11-11T13:48:57;0.95;;;0.60;;
15240;SDS011;7723;52.170;9.978;2022-11-11T13:51:26;1.80;;;0.73;;
15240;SDS011;7723;52.170;9.978;2022-11-11T13:53:59;1.13;;;0.88;;
15240;SDS011;7723;52.170;9.978;2022-11-11T13:56:32;1.98;;;0.73;;
15240;SDS011;7723;52.170;9.978;2022-11-11T13:59:04;2.30;;;0.70;;
15240;SDS011;7723;52.170;9.978;2022-11-11T14:01:33;2.13;;;0.82;;
15240;SDS011;7723;52.170;9.978;2022-11-11T14:04:04;1.58;;;0.57;;
15240;SDS011;7723;52.170;9.978;2022-11-11T14:12:32;1.20;;;0.68;;
15240;SDS011;7723;52.170;9.978;2022-11-11T14:15:03;1.95;;;1.10;;
15240;SDS011;7723;52.170;9.978;2022-11-11T14:17:32;4.00;;;0.60;;
15240;SDS011;7723;52.170;9.978;2022-11-11T14:23:13;1.17;;;0.80;;
15240;SDS011;7723;52.170;9.978;2022-11-11T14:25:49;1.10;;;0.60;;
15240;SDS011;7723;52.170;9.978;2022-11-11T14:28:21;2.45;;;0.65;;
15240;SDS011;7723;52.170;9.978;2022-11-11T14:30:53;3.22;;;0.90;;
15240;SDS011;7723;52.170;9.978;2022-11-11T14:33:30;0.80;;;0.60;;
15240;SDS011;7723;52.170;9.978;2022-11-11T14:36:09;1.25;;;0.85;;
15240;SDS011;7723;52.170;9.978;2022-11-11T14:38:46;1.10;;;0.80;;
15240;SDS011;7723;52.170;9.978;2022-11-11T14:41:43;2.22;;;0.90;;
15240;SDS011;7723;52.170;9.978;2022-11-11T14:47:24;1.45;;;0.90;;
15240;SDS011;7723;52.170;9.978;2022-11-11T14:49:58;2.00;;;0.90;;
15240;SDS011;7723;52.170;9.978;2022-11-11T14:52:31;2.00;;;0.90;;
15240;SDS011;7723;52.170;9.978;2022-11-11T14:55:03;2.65;;;0.95;;
15240;SDS011;7723;52.170;9.978;2022-11-11T14:57:38;1.88;;;1.00;;
15240;SDS011;7723;52.170;9.978;2022-11-11T15:00:12;2.45;;;1.15;;
15240;SDS011;7723;52.170;9.978;2022-11-11T15:02:49;2.53;;;1.40;;
15240;SDS011;7723;52.170;9.978;2022-11-11T15:05:21;2.33;;;1.35;;
15240;SDS011;7723;52.170;9.978;2022-11-11T15:08:04;1.65;;;0.90;;
15240;SDS011;7723;52.170;9.978;2022-11-11T15:10:54;2.13;;;1.30;;
15240;SDS011;7723;52.170;9.978;2022-11-11T15:13:36;3.20;;;1.20;;
15240;SDS011;7723;52.170;9.978;2022-11-11T15:16:29;2.40;;;1.33;;
15240;SDS011;7723;52.170;9.978;2022-11-11T15:19:17;2.22;;;1.30;;
15240;SDS011;7723;52.170;9.978;2022-11-11T15:21:55;1.80;;;1.10;;
15240;SDS011;7723;52.170;9.978;2022-11-11T15:24:37;1.75;;;1.02;;
15240;SDS011;7723;52.170;9.978;2022-11-11T15:27:14;2.40;;;1.30;;
15240;SDS011;7723;52.170;9.978;2022-11-11T15:29:57;1.83;;;1.60;;
15240;SDS011;7723;52.170;9.978;2022-11-11T15:32:32;2.30;;;1.50;;
15240;SDS011;7723;52.170;9.978;2022-11-11T15:35:24;2.17;;;1.40;;
15240;SDS011;7723;52.170;9.978;2022-11-11T15:37:59;2.55;;;1.70;;
15240;SDS011;7723;52.170;9.978;2022-11-11T15:40:30;2.05;;;1.80;;
15240;SDS011;7723;52.170;9.978;2022-11-11T15:43:10;2.50;;;1.70;;
15240;SDS011;7723;52.170;9.978;2022-11-11T15:45:40;4.32;;;2.05;;
15240;SDS011;7723;52.170;9.978;2022-11-11T15:48:12;2.72;;;1.98;;